Onset, Massachusetts
Current Conditions -  °F | °C
As of 3:15 AM on Thursday 18 Dec 2014 (Local Time) from KFMH Reporting Station
Overcast Overcast  
Wind Chill: 32°   Ceiling: 5500
Heat Index: 39°   Visibility: 10mi
Dew Point: 30°   Wind: 12mph
Humidity: 70%   Direction: 280°W
Pressure: 29.73"   Gusts: 18mph
Location:  41.75°N, 70.67°W
Report Text: KFMH 180815Z AUTO 28010G16KT 10SM OVC055 04/M01 A2973 RMK AO2
Loading
Personal Weather Stations






























Interactive Weather Map New forecast layout! Learn more

10-Day Weather Forecast

Advertisements
Track Severe Weather on mobile